sensor_id;sensor_type;location;lat;lon;timestamp;pressure;altitude;pressure_sealevel;temperature;humidity
44481;BME280;30184;42.018;23.670;2023-05-09T00:00:21;91634.34;;;12.44;94.97
44481;BME280;30184;42.018;23.670;2023-05-09T00:02:50;91626.00;;;12.39;95.13
44481;BME280;30184;42.018;23.670;2023-05-09T00:05:21;91625.22;;;12.38;95.25
44481;BME280;30184;42.018;23.670;2023-05-09T00:07:51;91633.06;;;12.36;95.15
44481;BME280;30184;42.018;23.670;2023-05-09T00:10:21;91566.34;;;11.84;95.01
44481;BME280;30184;42.018;23.670;2023-05-09T00:12:50;91559.25;;;11.87;94.76
44481;BME280;30184;42.018;23.670;2023-05-09T00:15:19;91630.16;;;12.30;94.36
44481;BME280;30184;42.018;23.670;2023-05-09T00:17:48;91499.84;;;11.38;93.40
44481;BME280;30184;42.018;23.670;2023-05-09T00:20:18;91622.09;;;12.27;93.21
44481;BME280;30184;42.018;23.670;2023-05-09T00:22:47;91502.00;;;11.43;93.38
44481;BME280;30184;42.018;23.670;2023-05-09T00:25:18;91627.34;;;12.21;93.15
44481;BME280;30184;42.018;23.670;2023-05-09T00:27:47;91620.03;;;12.18;93.12
44481;BME280;30184;42.018;23.670;2023-05-09T00:30:16;91623.97;;;12.17;92.84
44481;BME280;30184;42.018;23.670;2023-05-09T00:32:45;91616.22;;;12.16;92.67
44481;BME280;30184;42.018;23.670;2023-05-09T00:35:15;91633.00;;;12.02;92.49
44481;BME280;30184;42.018;23.670;2023-05-09T00:37:44;91627.53;;;12.14;92.16
44481;BME280;30184;42.018;23.670;2023-05-09T00:40:13;91626.06;;;12.13;90.90
44481;BME280;30184;42.018;23.670;2023-05-09T00:42:44;91640.06;;;12.12;89.48
44481;BME280;30184;42.018;23.670;2023-05-09T00:45:13;91666.94;;;12.10;89.30
44481;BME280;30184;42.018;23.670;2023-05-09T00:47:43;91640.94;;;12.09;89.23
44481;BME280;30184;42.018;23.670;2023-05-09T00:50:12;91640.31;;;12.05;89.33
44481;BME280;30184;42.018;23.670;2023-05-09T00:52:41;91621.69;;;11.78;89.08
44481;BME280;30184;42.018;23.670;2023-05-09T00:55:10;91652.97;;;11.70;89.49
44481;BME280;30184;42.018;23.670;2023-05-09T00:57:41;91702.50;;;11.90;89.50
44481;BME280;30184;42.018;23.670;2023-05-09T01:00:13;91668.91;;;11.84;89.33
44481;BME280;30184;42.018;23.670;2023-05-09T01:02:45;91654.31;;;11.78;89.50
44481;BME280;30184;42.018;23.670;2023-05-09T01:05:17;91652.81;;;11.77;89.84
44481;BME280;30184;42.018;23.670;2023-05-09T01:07:51;91663.69;;;11.77;89.90
44481;BME280;30184;42.018;23.670;2023-05-09T01:10:28;91659.31;;;11.79;89.78
44481;BME280;30184;42.018;23.670;2023-05-09T01:13:03;91653.13;;;11.79;89.56
44481;BME280;30184;42.018;23.670;2023-05-09T01:15:38;91652.06;;;11.76;89.39
44481;BME280;30184;42.018;23.670;2023-05-09T01:18:13;91655.19;;;11.75;89.54
44481;BME280;30184;42.018;23.670;2023-05-09T01:20:46;91652.81;;;11.77;89.41
44481;BME280;30184;42.018;23.670;2023-05-09T01:23:47;91649.78;;;11.75;89.10
44481;BME280;30184;42.018;23.670;2023-05-09T01:26:24;91655.38;;;11.68;89.13
44481;BME280;30184;42.018;23.670;2023-05-09T01:29:24;91676.06;;;11.78;88.80
44481;BME280;30184;42.018;23.670;2023-05-09T01:31:56;91671.72;;;11.80;88.66
44481;BME280;30184;42.018;23.670;2023-05-09T01:34:27;91668.38;;;11.76;88.46
44481;BME280;30184;42.018;23.670;2023-05-09T01:36:58;91660.84;;;11.68;88.48
44481;BME280;30184;42.018;23.670;2023-05-09T01:39:29;91665.28;;;11.74;88.37
44481;BME280;30184;42.018;23.670;2023-05-09T01:42:02;91667.59;;;11.76;88.28
44481;BME280;30184;42.018;23.670;2023-05-09T01:44:38;91555.88;;;10.65;87.81
44481;BME280;30184;42.018;23.670;2023-05-09T01:47:08;91656.38;;;11.74;87.56
44481;BME280;30184;42.018;23.670;2023-05-09T01:49:40;91664.75;;;11.67;87.35
44481;BME280;30184;42.018;23.670;2023-05-09T01:52:13;91668.75;;;11.62;87.58
44481;BME280;30184;42.018;23.670;2023-05-09T01:54:43;91643.56;;;11.33;87.61
44481;BME280;30184;42.018;23.670;2023-05-09T01:57:14;91670.06;;;11.57;87.28
44481;BME280;30184;42.018;23.670;2023-05-09T01:59:46;91681.69;;;11.58;86.97
44481;BME280;30184;42.018;23.670;2023-05-09T02:02:17;91662.66;;;11.58;86.83
44481;BME280;30184;42.018;23.670;2023-05-09T02:04:48;91645.22;;;11.43;86.83
44481;BME280;30184;42.018;23.670;2023-05-09T02:07:18;91672.44;;;11.55;86.63
44481;BME280;30184;42.018;23.670;2023-05-09T02:09:54;91708.97;;;11.54;86.20
44481;BME280;30184;42.018;23.670;2023-05-09T02:12:26;91665.91;;;11.53;86.08
44481;BME280;30184;42.018;23.670;2023-05-09T02:14:56;91663.63;;;11.51;86.23
44481;BME280;30184;42.018;23.670;2023-05-09T02:17:25;91664.81;;;11.50;85.75
44481;BME280;30184;42.018;23.670;2023-05-09T02:19:57;91667.84;;;11.52;86.26
44481;BME280;30184;42.018;23.670;2023-05-09T02:22:26;91674.47;;;11.51;86.05
44481;BME280;30184;42.018;23.670;2023-05-09T02:24:56;91640.41;;;11.21;85.77
44481;BME280;30184;42.018;23.670;2023-05-09T02:27:27;91677.41;;;11.44;86.58
44481;BME280;30184;42.018;23.670;2023-05-09T02:29:58;91671.63;;;11.42;86.79
44481;BME280;30184;42.018;23.670;2023-05-09T02:32:32;91670.88;;;11.42;87.18
44481;BME280;30184;42.018;23.670;2023-05-09T02:35:02;91681.53;;;11.36;87.66
44481;BME280;30184;42.018;23.670;2023-05-09T02:37:33;91686.72;;;11.31;87.49
44481;BME280;30184;42.018;23.670;2023-05-09T02:40:04;91691.72;;;11.32;87.73
44481;BME280;30184;42.018;23.670;2023-05-09T02:42:35;91691.63;;;11.36;87.98
44481;BME280;30184;42.018;23.670;2023-05-09T02:45:07;91689.00;;;11.32;88.41
44481;BME280;30184;42.018;23.670;2023-05-09T02:47:38;91688.22;;;11.32;88.66
44481;BME280;30184;42.018;23.670;2023-05-09T02:50:07;91690.94;;;11.32;88.38
44481;BME280;30184;42.018;23.670;2023-05-09T02:52:38;91668.31;;;11.09;88.40
44481;BME280;30184;42.018;23.670;2023-05-09T02:55:08;91686.28;;;11.32;88.47
44481;BME280;30184;42.018;23.670;2023-05-09T02:57:39;91718.75;;;11.23;88.67
44481;BME280;30184;42.018;23.670;2023-05-09T03:00:11;91646.00;;;11.02;88.95
44481;BME280;30184;42.018;23.670;2023-05-09T03:02:41;91689.53;;;11.27;89.18
44481;BME280;30184;42.018;23.670;2023-05-09T03:05:15;91645.34;;;10.98;89.53
44481;BME280;30184;42.018;23.670;2023-05-09T03:07:45;91682.59;;;11.26;89.12
44481;BME280;30184;42.018;23.670;2023-05-09T03:10:14;91757.97;;;11.22;89.14
44481;BME280;30184;42.018;23.670;2023-05-09T03:12:43;91691.06;;;11.28;89.19
44481;BME280;30184;42.018;23.670;2023-05-09T03:15:14;91689.19;;;11.25;88.64
44481;BME280;30184;42.018;23.670;2023-05-09T03:17:45;91696.69;;;11.21;87.94
44481;BME280;30184;42.018;23.670;2023-05-09T03:20:15;91698.19;;;11.22;87.80
44481;BME280;30184;42.018;23.670;2023-05-09T03:22:44;91697.88;;;11.20;87.98
44481;BME280;30184;42.018;23.670;2023-05-09T03:25:15;91622.72;;;10.59;88.38
44481;BME280;30184;42.018;23.670;2023-05-09T03:27:44;91744.38;;;11.22;88.53
44481;BME280;30184;42.018;23.670;2023-05-09T03:30:16;91714.06;;;11.23;88.05
44481;BME280;30184;42.018;23.670;2023-05-09T03:32:48;91714.50;;;11.22;87.36
44481;BME280;30184;42.018;23.670;2023-05-09T03:35:17;91710.28;;;11.21;87.08
44481;BME280;30184;42.018;23.670;2023-05-09T03:37:46;91720.47;;;11.17;86.70
44481;BME280;30184;42.018;23.670;2023-05-09T03:40:16;91724.72;;;11.18;86.27
44481;BME280;30184;42.018;23.670;2023-05-09T03:42:51;91725.91;;;11.17;85.94
44481;BME280;30184;42.018;23.670;2023-05-09T03:45:21;91715.03;;;11.17;85.68
44481;BME280;30184;42.018;23.670;2023-05-09T03:47:50;91722.75;;;11.18;85.79
44481;BME280;30184;42.018;23.670;2023-05-09T03:50:20;91720.81;;;11.19;86.06
44481;BME280;30184;42.018;23.670;2023-05-09T03:52:50;91716.75;;;11.11;85.99
44481;BME280;30184;42.018;23.670;2023-05-09T03:55:19;91717.59;;;11.08;86.30
44481;BME280;30184;42.018;23.670;2023-05-09T03:57:50;91737.31;;;11.12;85.36
44481;BME280;30184;42.018;23.670;2023-05-09T04:00:21;91726.84;;;11.10;85.61
44481;BME280;30184;42.018;23.670;2023-05-09T04:03:00;91735.44;;;11.09;86.04
44481;BME280;30184;42.018;23.670;2023-05-09T04:05:38;91739.53;;;11.01;86.26
44481;BME280;30184;42.018;23.670;2023-05-09T04:08:13;91747.19;;;10.90;86.59
44481;BME280;30184;42.018;23.670;2023-05-09T04:10:42;91741.78;;;10.73;87.66
44481;BME280;30184;42.018;23.670;2023-05-09T04:13:11;91747.09;;;10.77;87.79
44481;BME280;30184;42.018;23.670;2023-05-09T04:15:42;91747.50;;;10.75;88.28
44481;BME280;30184;42.018;23.670;2023-05-09T04:18:11;91738.28;;;10.73;87.73
44481;BME280;30184;42.018;23.670;2023-05-09T04:20:41;91748.72;;;10.74;87.83
44481;BME280;30184;42.018;23.670;2023-05-09T04:23:10;91753.28;;;10.77;88.66
44481;BME280;30184;42.018;23.670;2023-05-09T04:25:39;91755.81;;;10.84;88.59
44481;BME280;30184;42.018;23.670;2023-05-09T04:28:09;91704.47;;;10.45;87.88
44481;BME280;30184;42.018;23.670;2023-05-09T04:30:38;91759.56;;;10.91;87.42
44481;BME280;30184;42.018;23.670;2023-05-09T04:33:11;91756.16;;;10.87;87.10
44481;BME280;30184;42.018;23.670;2023-05-09T04:35:41;91755.31;;;10.90;88.09
44481;BME280;30184;42.018;23.670;2023-05-09T04:38:11;91752.59;;;10.90;87.14
44481;BME280;30184;42.018;23.670;2023-05-09T04:40:40;91751.00;;;10.92;87.60
44481;BME280;30184;42.018;23.670;2023-05-09T04:43:09;91752.06;;;10.95;87.30
44481;BME280;30184;42.018;23.670;2023-05-09T04:45:38;91760.97;;;10.95;86.66
44481;BME280;30184;42.018;23.670;2023-05-09T04:48:08;91769.13;;;10.95;86.34
44481;BME280;30184;42.018;23.670;2023-05-09T04:50:39;91770.31;;;10.94;86.21
44481;BME280;30184;42.018;23.670;2023-05-09T04:53:09;91774.47;;;10.99;86.21
44481;BME280;30184;42.018;23.670;2023-05-09T04:55:38;91759.72;;;11.00;85.30
44481;BME280;30184;42.018;23.670;2023-05-09T04:58:07;91773.28;;;11.00;84.68
44481;BME280;30184;42.018;23.670;2023-05-09T05:00:37;91765.91;;;11.00;84.69
44481;BME280;30184;42.018;23.670;2023-05-09T05:03:07;91763.28;;;10.97;83.96
44481;BME280;30184;42.018;23.670;2023-05-09T05:05:38;91752.69;;;11.02;84.35
44481;BME280;30184;42.018;23.670;2023-05-09T05:08:08;91733.69;;;10.86;84.75
44481;BME280;30184;42.018;23.670;2023-05-09T05:10:40;91762.25;;;11.07;84.33
44481;BME280;30184;42.018;23.670;2023-05-09T05:13:12;91768.78;;;11.09;84.40
44481;BME280;30184;42.018;23.670;2023-05-09T05:15:44;91768.69;;;11.13;84.32
44481;BME280;30184;42.018;23.670;2023-05-09T05:18:14;91668.16;;;10.06;83.53
44481;BME280;30184;42.018;23.670;2023-05-09T05:20:44;91768.50;;;11.20;83.48
44481;BME280;30184;42.018;23.670;2023-05-09T05:23:13;91780.03;;;11.24;83.21
44481;BME280;30184;42.018;23.670;2023-05-09T05:25:42;91778.50;;;11.23;83.10
44481;BME280;30184;42.018;23.670;2023-05-09T05:28:13;91771.47;;;11.26;82.57
44481;BME280;30184;42.018;23.670;2023-05-09T05:30:42;91771.47;;;11.26;82.11
44481;BME280;30184;42.018;23.670;2023-05-09T05:33:11;91775.94;;;11.32;82.34
44481;BME280;30184;42.018;23.670;2023-05-09T05:35:41;91782.22;;;11.00;81.85
44481;BME280;30184;42.018;23.670;2023-05-09T05:38:11;91778.78;;;11.41;80.88
44481;BME280;30184;42.018;23.670;2023-05-09T05:40:41;91766.75;;;11.42;80.18
44481;BME280;30184;42.018;23.670;2023-05-09T05:43:11;91765.56;;;11.43;80.37
44481;BME280;30184;42.018;23.670;2023-05-09T05:45:40;91766.31;;;11.44;79.85
44481;BME280;30184;42.018;23.670;2023-05-09T05:48:14;91780.66;;;11.44;80.02
44481;BME280;30184;42.018;23.670;2023-05-09T05:50:45;91731.41;;;11.13;79.75
44481;BME280;30184;42.018;23.670;2023-05-09T05:53:18;91781.09;;;11.43;79.95
44481;BME280;30184;42.018;23.670;2023-05-09T05:55:50;91779.06;;;11.47;79.85
44481;BME280;30184;42.018;23.670;2023-05-09T05:58:19;91744.47;;;10.73;79.31
44481;BME280;30184;42.018;23.670;2023-05-09T06:00:50;91798.28;;;11.40;79.05
44481;BME280;30184;42.018;23.670;2023-05-09T06:03:19;91793.56;;;11.40;79.22
44481;BME280;30184;42.018;23.670;2023-05-09T06:06:01;91785.75;;;11.42;79.37
44481;BME280;30184;42.018;23.670;2023-05-09T06:08:32;91794.94;;;11.48;79.44
44481;BME280;30184;42.018;23.670;2023-05-09T06:11:01;91792.78;;;11.56;79.79
44481;BME280;30184;42.018;23.670;2023-05-09T06:13:32;91790.53;;;11.67;79.73
44481;BME280;30184;42.018;23.670;2023-05-09T06:16:05;91795.38;;;11.76;79.53
44481;BME280;30184;42.018;23.670;2023-05-09T06:18:42;91791.00;;;11.78;77.76
44481;BME280;30184;42.018;23.670;2023-05-09T06:21:11;91781.09;;;11.72;77.91
44481;BME280;30184;42.018;23.670;2023-05-09T06:23:42;91787.09;;;11.79;77.92
44481;BME280;30184;42.018;23.670;2023-05-09T06:26:18;91787.34;;;11.85;77.72
44481;BME280;30184;42.018;23.670;2023-05-09T06:28:49;91793.78;;;11.91;77.02
44481;BME280;30184;42.018;23.670;2023-05-09T06:31:18;91787.34;;;11.85;76.59
44481;BME280;30184;42.018;23.670;2023-05-09T06:33:47;91793.22;;;11.83;76.16
44481;BME280;30184;42.018;23.670;2023-05-09T06:36:16;91793.69;;;11.94;76.34
44481;BME280;30184;42.018;23.670;2023-05-09T06:38:47;91786.31;;;12.08;76.83
44481;BME280;30184;42.018;23.670;2023-05-09T06:41:16;91783.16;;;12.09;75.95
44481;BME280;30184;42.018;23.670;2023-05-09T06:43:45;91796.66;;;12.25;74.75
44481;BME280;30184;42.018;23.670;2023-05-09T06:46:15;91788.94;;;12.24;74.01
44481;BME280;30184;42.018;23.670;2023-05-09T06:48:44;91794.16;;;12.44;74.60
44481;BME280;30184;42.018;23.670;2023-05-09T06:51:13;91790.25;;;12.45;74.07
44481;BME280;30184;42.018;23.670;2023-05-09T06:53:43;91782.53;;;12.56;75.11
44481;BME280;30184;42.018;23.670;2023-05-09T06:56:13;91786.97;;;12.62;74.16
44481;BME280;30184;42.018;23.670;2023-05-09T06:58:43;91658.25;;;11.77;74.19
44481;BME280;30184;42.018;23.670;2023-05-09T07:01:12;91744.75;;;12.45;72.21
44481;BME280;30184;42.018;23.670;2023-05-09T07:03:42;91784.88;;;12.79;72.15
44481;BME280;30184;42.018;23.670;2023-05-09T07:06:13;91782.50;;;12.81;71.65
44481;BME280;30184;42.018;23.670;2023-05-09T07:08:42;91775.22;;;12.78;71.62
44481;BME280;30184;42.018;23.670;2023-05-09T07:11:13;91778.81;;;12.75;71.79
44481;BME280;30184;42.018;23.670;2023-05-09T07:13:42;91830.75;;;12.81;72.50
44481;BME280;30184;42.018;23.670;2023-05-09T07:16:11;91763.75;;;12.96;73.63
44481;BME280;30184;42.018;23.670;2023-05-09T07:18:40;91778.41;;;13.11;71.46
44481;BME280;30184;42.018;23.670;2023-05-09T07:21:09;91726.41;;;12.71;69.39
44481;BME280;30184;42.018;23.670;2023-05-09T07:23:38;91787.28;;;13.02;69.66
44481;BME280;30184;42.018;23.670;2023-05-09T07:26:07;91788.78;;;13.16;70.15
44481;BME280;30184;42.018;23.670;2023-05-09T07:28:38;91783.97;;;13.20;69.14
44481;BME280;30184;42.018;23.670;2023-05-09T07:31:07;91788.00;;;13.28;69.03
44481;BME280;30184;42.018;23.670;2023-05-09T07:33:36;91783.53;;;13.34;69.01
44481;BME280;30184;42.018;23.670;2023-05-09T07:36:06;91778.88;;;13.44;68.54
44481;BME280;30184;42.018;23.670;2023-05-09T07:38:39;91817.69;;;13.48;67.24
44481;BME280;30184;42.018;23.670;2023-05-09T07:41:08;91777.22;;;13.12;67.10
44481;BME280;30184;42.018;23.670;2023-05-09T07:43:39;91773.97;;;13.04;67.53
44481;BME280;30184;42.018;23.670;2023-05-09T07:46:08;91766.13;;;13.06;67.75
44481;BME280;30184;42.018;23.670;2023-05-09T07:48:37;91802.50;;;13.13;66.95
44481;BME280;30184;42.018;23.670;2023-05-09T07:51:07;91765.91;;;13.01;67.10
44481;BME280;30184;42.018;23.670;2023-05-09T07:53:36;91760.22;;;13.08;67.23
44481;BME280;30184;42.018;23.670;2023-05-09T07:56:05;91776.91;;;13.23;66.62
44481;BME280;30184;42.018;23.670;2023-05-09T07:58:34;91671.56;;;12.60;67.32
44481;BME280;30184;42.018;23.670;2023-05-09T08:01:05;91780.22;;;13.39;66.76
44481;BME280;30184;42.018;23.670;2023-05-09T08:03:34;91775.78;;;13.55;65.74
44481;BME280;30184;42.018;23.670;2023-05-09T08:06:03;91775.44;;;13.65;65.75
44481;BME280;30184;42.018;23.670;2023-05-09T08:08:33;91782.84;;;13.65;64.66
44481;BME280;30184;42.018;23.670;2023-05-09T08:11:04;91766.09;;;13.54;64.97
44481;BME280;30184;42.018;23.670;2023-05-09T08:13:33;91786.34;;;13.65;65.34
44481;BME280;30184;42.018;23.670;2023-05-09T08:16:02;91769.53;;;13.67;65.05
44481;BME280;30184;42.018;23.670;2023-05-09T08:18:33;91777.41;;;13.65;64.49
44481;BME280;30184;42.018;23.670;2023-05-09T08:21:03;91775.88;;;13.64;64.82
44481;BME280;30184;42.018;23.670;2023-05-09T08:23:32;91774.56;;;13.68;65.46
44481;BME280;30184;42.018;23.670;2023-05-09T08:26:01;91777.78;;;13.76;65.88
44481;BME280;30184;42.018;23.670;2023-05-09T08:28:30;91776.06;;;13.69;63.78
44481;BME280;30184;42.018;23.670;2023-05-09T08:30:59;91774.88;;;13.70;64.49
44481;BME280;30184;42.018;23.670;2023-05-09T08:33:28;91782.28;;;13.70;65.09
44481;BME280;30184;42.018;23.670;2023-05-09T08:35:59;91779.19;;;13.59;65.43
44481;BME280;30184;42.018;23.670;2023-05-09T08:38:28;91780.19;;;13.52;66.43
44481;BME280;30184;42.018;23.670;2023-05-09T08:41:01;91777.81;;;13.63;66.79
44481;BME280;30184;42.018;23.670;2023-05-09T08:43:32;91776.06;;;13.69;65.01
44481;BME280;30184;42.018;23.670;2023-05-09T08:46:05;91749.28;;;13.55;65.39
44481;BME280;30184;42.018;23.670;2023-05-09T08:48:35;91777.13;;;13.50;66.32
44481;BME280;30184;42.018;23.670;2023-05-09T08:51:06;91790.44;;;13.48;65.85
44481;BME280;30184;42.018;23.670;2023-05-09T08:53:37;91776.78;;;13.61;66.83
44481;BME280;30184;42.018;23.670;2023-05-09T08:56:07;91762.06;;;13.58;65.54
44481;BME280;30184;42.018;23.670;2023-05-09T08:58:38;91769.84;;;13.47;65.62
44481;BME280;30184;42.018;23.670;2023-05-09T09:01:08;91727.84;;;13.23;64.99
44481;BME280;30184;42.018;23.670;2023-05-09T09:03:38;91767.00;;;13.51;65.11
44481;BME280;30184;42.018;23.670;2023-05-09T09:06:13;91774.84;;;13.49;65.88
44481;BME280;30184;42.018;23.670;2023-05-09T09:08:43;91783.69;;;13.53;65.73
44481;BME280;30184;42.018;23.670;2023-05-09T09:11:13;91780.31;;;13.49;64.94
44481;BME280;30184;42.018;23.670;2023-05-09T09:13:44;91754.66;;;13.12;64.87
44481;BME280;30184;42.018;23.670;2023-05-09T09:16:18;91772.44;;;13.72;65.33
44481;BME280;30184;42.018;23.670;2023-05-09T09:18:50;91776.00;;;13.82;64.33
44481;BME280;30184;42.018;23.670;2023-05-09T09:21:21;91767.75;;;13.95;64.21
44481;BME280;30184;42.018;23.670;2023-05-09T09:23:51;91785.97;;;13.98;63.57
44481;BME280;30184;42.018;23.670;2023-05-09T09:26:22;91771.56;;;13.97;62.37
44481;BME280;30184;42.018;23.670;2023-05-09T09:28:56;91773.09;;;13.98;62.37
44481;BME280;30184;42.018;23.670;2023-05-09T09:31:26;91742.59;;;13.69;63.60
44481;BME280;30184;42.018;23.670;2023-05-09T09:33:59;91773.22;;;13.95;62.71
44481;BME280;30184;42.018;23.670;2023-05-09T09:36:30;91769.16;;;13.77;62.69
44481;BME280;30184;42.018;23.670;2023-05-09T09:39:02;91770.16;;;13.93;63.55
44481;BME280;30184;42.018;23.670;2023-05-09T09:41:32;91765.53;;;14.02;64.26
44481;BME280;30184;42.018;23.670;2023-05-09T09:44:06;91716.63;;;13.64;63.96
44481;BME280;30184;42.018;23.670;2023-05-09T09:46:46;91744.22;;;13.44;62.72
44481;BME280;30184;42.018;23.670;2023-05-09T09:49:18;91778.88;;;13.78;63.49
44481;BME280;30184;42.018;23.670;2023-05-09T09:51:54;91774.19;;;13.79;63.15
44481;BME280;30184;42.018;23.670;2023-05-09T09:54:25;91770.44;;;13.86;63.78
44481;BME280;30184;42.018;23.670;2023-05-09T09:56:54;91767.31;;;13.96;63.65
44481;BME280;30184;42.018;23.670;2023-05-09T09:59:25;91796.03;;;14.10;63.49
44481;BME280;30184;42.018;23.670;2023-05-09T10:01:56;91748.44;;;14.11;63.11
44481;BME280;30184;42.018;23.670;2023-05-09T10:04:28;91767.06;;;14.34;62.22
44481;BME280;30184;42.018;23.670;2023-05-09T10:07:00;91766.50;;;14.39;62.09
44481;BME280;30184;42.018;23.670;2023-05-09T10:09:30;91768.72;;;14.32;60.89
44481;BME280;30184;42.018;23.670;2023-05-09T10:12:01;91764.91;;;14.29;60.28
44481;BME280;30184;42.018;23.670;2023-05-09T10:14:32;91778.66;;;14.16;60.28
44481;BME280;30184;42.018;23.670;2023-05-09T10:17:03;91763.13;;;14.04;61.61
44481;BME280;30184;42.018;23.670;2023-05-09T10:19:34;91730.00;;;13.93;61.24
44481;BME280;30184;42.018;23.670;2023-05-09T10:22:08;91770.00;;;14.18;60.29
44481;BME280;30184;42.018;23.670;2023-05-09T10:24:41;91772.28;;;14.19;60.02
44481;BME280;30184;42.018;23.670;2023-05-09T10:27:18;91775.88;;;14.07;61.28
44481;BME280;30184;42.018;23.670;2023-05-09T10:30:00;91772.69;;;14.09;61.87
44481;BME280;30184;42.018;23.670;2023-05-09T10:32:35;91771.94;;;14.08;62.89
44481;BME280;30184;42.018;23.670;2023-05-09T10:35:08;91747.84;;;14.07;62.67
44481;BME280;30184;42.018;23.670;2023-05-09T10:37:40;91762.47;;;14.22;62.49
44481;BME280;30184;42.018;23.670;2023-05-09T10:40:11;91759.59;;;14.26;62.15
44481;BME280;30184;42.018;23.670;2023-05-09T10:42:42;91770.19;;;14.24;62.08
44481;BME280;30184;42.018;23.670;2023-05-09T10:45:11;91766.44;;;14.30;62.08
44481;BME280;30184;42.018;23.670;2023-05-09T10:47:42;91772.22;;;14.32;62.00
44481;BME280;30184;42.018;23.670;2023-05-09T10:50:15;91767.47;;;14.24;61.59
44481;BME280;30184;42.018;23.670;2023-05-09T10:53:06;91756.44;;;14.27;61.26
44481;BME280;30184;42.018;23.670;2023-05-09T10:55:36;91754.00;;;14.29;62.48
44481;BME280;30184;42.018;23.670;2023-05-09T10:58:22;91735.31;;;14.28;62.19
44481;BME280;30184;42.018;23.670;2023-05-09T11:00:53;91736.53;;;14.17;62.65
44481;BME280;30184;42.018;23.670;2023-05-09T11:03:23;91750.22;;;14.27;62.19
44481;BME280;30184;42.018;23.670;2023-05-09T11:05:54;91758.56;;;14.32;62.32
44481;BME280;30184;42.018;23.670;2023-05-09T11:08:27;91756.75;;;14.38;61.94
44481;BME280;30184;42.018;23.670;2023-05-09T11:10:58;91760.97;;;14.52;60.86
44481;BME280;30184;42.018;23.670;2023-05-09T11:13:36;91714.25;;;14.28;60.24
44481;BME280;30184;42.018;23.670;2023-05-09T11:16:09;91759.03;;;14.62;59.48
44481;BME280;30184;42.018;23.670;2023-05-09T11:18:50;91690.16;;;14.27;59.80
44481;BME280;30184;42.018;23.670;2023-05-09T11:21:20;91761.53;;;14.16;59.48
44481;BME280;30184;42.018;23.670;2023-05-09T11:23:51;91750.59;;;14.78;58.40
44481;BME280;30184;42.018;23.670;2023-05-09T11:26:21;91754.22;;;14.84;58.27
44481;BME280;30184;42.018;23.670;2023-05-09T11:28:52;91751.34;;;14.78;58.67
44481;BME280;30184;42.018;23.670;2023-05-09T11:31:24;91773.31;;;14.75;59.50
44481;BME280;30184;42.018;23.670;2023-05-09T11:34:00;91759.28;;;14.45;59.03
44481;BME280;30184;42.018;23.670;2023-05-09T11:36:31;91716.31;;;13.84;59.48
44481;BME280;30184;42.018;23.670;2023-05-09T11:39:05;91846.56;;;14.36;59.37
44481;BME280;30184;42.018;23.670;2023-05-09T11:41:42;91762.91;;;14.42;59.91
44481;BME280;30184;42.018;23.670;2023-05-09T11:44:13;91647.47;;;13.27;59.67
44481;BME280;30184;42.018;23.670;2023-05-09T11:46:43;91560.13;;;13.09;60.02
44481;BME280;30184;42.018;23.670;2023-05-09T11:49:13;91725.94;;;13.98;61.07
44481;BME280;30184;42.018;23.670;2023-05-09T11:51:42;91763.34;;;14.41;60.05
44481;BME280;30184;42.018;23.670;2023-05-09T11:54:13;91743.34;;;14.22;60.98
44481;BME280;30184;42.018;23.670;2023-05-09T11:56:42;91776.44;;;14.02;60.55
44481;BME280;30184;42.018;23.670;2023-05-09T11:59:11;91761.75;;;14.62;61.24
44481;BME280;30184;42.018;23.670;2023-05-09T12:01:42;91766.50;;;14.70;60.76
44481;BME280;30184;42.018;23.670;2023-05-09T12:04:11;91726.44;;;14.36;59.96
44481;BME280;30184;42.018;23.670;2023-05-09T12:06:46;91735.59;;;14.42;60.30
44481;BME280;30184;42.018;23.670;2023-05-09T12:09:16;91757.16;;;14.49;60.10
44481;BME280;30184;42.018;23.670;2023-05-09T12:11:47;91721.03;;;14.14;60.49
44481;BME280;30184;42.018;23.670;2023-05-09T12:14:25;91757.38;;;14.33;60.37
44481;BME280;30184;42.018;23.670;2023-05-09T12:16:55;91758.53;;;14.23;61.24
44481;BME280;30184;42.018;23.670;2023-05-09T12:19:25;91756.81;;;14.16;61.23
44481;BME280;30184;42.018;23.670;2023-05-09T12:21:55;91752.19;;;14.04;61.65
44481;BME280;30184;42.018;23.670;2023-05-09T12:24:27;91747.34;;;13.99;62.24
44481;BME280;30184;42.018;23.670;2023-05-09T12:26:58;91753.19;;;13.89;62.86
44481;BME280;30184;42.018;23.670;2023-05-09T12:29:28;91640.66;;;13.10;62.75
44481;BME280;30184;42.018;23.670;2023-05-09T12:31:57;91754.28;;;14.00;62.90
44481;BME280;30184;42.018;23.670;2023-05-09T12:34:27;91735.47;;;13.93;63.29
44481;BME280;30184;42.018;23.670;2023-05-09T12:36:56;91740.53;;;14.04;63.75
44481;BME280;30184;42.018;23.670;2023-05-09T12:39:28;91706.13;;;13.32;64.20
44481;BME280;30184;42.018;23.670;2023-05-09T12:41:57;91742.81;;;13.83;64.51
44481;BME280;30184;42.018;23.670;2023-05-09T12:44:28;91750.50;;;13.76;65.95
44481;BME280;30184;42.018;23.670;2023-05-09T12:46:59;91742.38;;;13.63;66.15
44481;BME280;30184;42.018;23.670;2023-05-09T12:49:30;91744.94;;;13.58;66.23
44481;BME280;30184;42.018;23.670;2023-05-09T12:52:00;91753.28;;;13.63;67.07
44481;BME280;30184;42.018;23.670;2023-05-09T12:54:31;91679.19;;;12.99;66.25
44481;BME280;30184;42.018;23.670;2023-05-09T12:57:01;91740.13;;;13.62;66.75
44481;BME280;30184;42.018;23.670;2023-05-09T12:59:32;91749.63;;;13.57;67.63
44481;BME280;30184;42.018;23.670;2023-05-09T13:02:01;91741.94;;;13.43;68.19
44481;BME280;30184;42.018;23.670;2023-05-09T13:04:30;91755.38;;;13.37;68.86
44481;BME280;30184;42.018;23.670;2023-05-09T13:07:00;91753.72;;;13.40;69.01
44481;BME280;30184;42.018;23.670;2023-05-09T13:09:29;91750.16;;;13.30;69.80